Time;durP1;ratioP1;P1;durP2;ratioP2;P2;SDS_P1;SDS_P2;PMS_P1;PMS_P2;Temp;Humidity;BMP_temperature;BMP_pressure;BME280_temperature;BME280_humidity;BME280_pressure;Samples;Min_cycle;Max_cycle;Signal;HPM_P1;HPM_P2
2022/05/07 00:01:48;;;;;;;;;11.25;11.25;;;;;-143.93;100.00;62969.28;4994187;28;8815;-67
2022/05/07 00:04:13;;;;;;;;;10.75;10.75;;;;;-143.93;100.00;62969.28;4993254;28;8832;-67
2022/05/07 00:06:39;;;;;;;;;9.50;9.50;;;;;-143.93;100.00;62969.28;5010535;28;8835;-67
2022/05/07 00:09:04;;;;;;;;;6.75;6.75;;;;;-143.93;100.00;62969.28;5015988;28;8816;-67
2022/05/07 00:11:29;;;;;;;;;9.00;5.25;;;;;-143.93;100.00;62969.28;4992053;28;8816;-67
2022/05/07 00:13:55;;;;;;;;;6.50;5.25;;;;;-143.93;100.00;62969.28;5003120;28;8807;-67
2022/05/07 00:19:04;;;;;;;;;9.25;7.50;;;;;-143.93;100.00;62969.28;5001864;28;8808;-66
2022/05/07 00:21:29;;;;;;;;;7.75;7.25;;;;;-143.93;100.00;62969.28;5016494;28;8856;-66
2022/05/07 00:23:55;;;;;;;;;7.50;6.00;;;;;-143.93;100.00;62969.28;5023230;27;9560;-67
2022/05/07 00:26:21;;;;;;;;;7.25;7.25;;;;;-143.93;100.00;62969.28;4992091;28;8808;-67
2022/05/07 00:28:46;;;;;;;;;8.00;6.00;;;;;-143.93;100.00;62969.28;5005077;28;8847;-67
2022/05/07 00:31:12;;;;;;;;;6.75;5.00;;;;;-143.93;100.00;62969.28;5016011;28;8853;-66
2022/05/07 00:33:37;;;;;;;;;7.50;6.25;;;;;-143.93;100.00;62969.28;5001047;28;8909;-67
2022/05/07 00:36:03;;;;;;;;;7.75;6.00;;;;;-143.93;100.00;62969.28;5005315;28;8836;-67
2022/05/07 00:38:28;;;;;;;;;8.50;6.50;;;;;-143.93;100.00;62969.28;5005420;28;9558;-67
2022/05/07 00:40:55;;;;;;;;;9.00;8.00;;;;;-143.93;100.00;62969.28;4992753;28;8840;-67
2022/05/07 00:43:20;;;;;;;;;11.50;8.25;;;;;-143.93;100.00;62969.28;4995893;28;8844;-67
2022/05/07 00:45:46;;;;;;;;;6.00;6.00;;;;;-143.93;100.00;62969.28;4992567;28;8818;-67
2022/05/07 00:48:13;;;;;;;;;9.75;7.75;;;;;-143.93;100.00;62969.28;4992417;28;8817;-67
2022/05/07 00:53:24;;;;;;;;;9.00;7.50;;;;;-143.93;100.00;62969.28;5005447;28;8786;-66
2022/05/07 00:55:51;;;;;;;;;8.50;7.00;;;;;-143.93;100.00;62969.28;5003516;28;8802;-66
2022/05/07 00:58:17;;;;;;;;;13.25;8.50;;;;;-143.93;100.00;62969.28;5006438;28;8804;-66
2022/05/07 01:00:43;;;;;;;;;10.50;8.75;;;;;-143.93;100.00;62969.28;5017692;28;8821;-66
2022/05/07 01:03:09;;;;;;;;;8.00;8.00;;;;;-143.93;100.00;62969.28;5000934;28;8831;-66
2022/05/07 01:05:35;;;;;;;;;9.75;6.50;;;;;-143.93;100.00;62969.28;5007453;28;8893;-67
2022/05/07 01:08:00;;;;;;;;;8.25;7.00;;;;;-143.93;100.00;62969.28;5005280;28;8799;-67
2022/05/07 01:10:27;;;;;;;;;11.00;8.00;;;;;-143.93;100.00;62969.28;5030743;27;8807;-67
2022/05/07 01:12:54;;;;;;;;;8.00;7.75;;;;;-143.93;100.00;62969.28;5041923;27;8822;-67
2022/05/07 01:15:20;;;;;;;;;10.00;7.00;;;;;-143.93;100.00;62969.28;5004050;28;9560;-67
2022/05/07 01:17:45;;;;;;;;;7.00;7.00;;;;;-143.93;100.00;62969.28;5019987;28;8835;-66
2022/05/07 01:20:12;;;;;;;;;10.75;8.00;;;;;-143.93;100.00;62969.28;5005853;28;8925;-66
2022/05/07 01:22:38;;;;;;;;;7.00;7.00;;;;;-143.93;100.00;62969.28;5005881;28;8970;-66
2022/05/07 01:25:04;;;;;;;;;9.00;8.00;;;;;-143.93;100.00;62969.28;5003391;28;8793;-67
2022/05/07 01:27:30;;;;;;;;;8.00;8.00;;;;;-143.93;100.00;62969.28;5004043;28;8808;-66
2022/05/07 01:29:56;;;;;;;;;8.75;8.25;;;;;-143.93;100.00;62969.28;5007367;28;8817;-67
2022/05/07 01:32:22;;;;;;;;;11.00;8.00;;;;;-143.93;100.00;62969.28;4993595;28;8883;-67
2022/05/07 01:34:47;;;;;;;;;11.25;6.25;;;;;-143.93;100.00;62969.28;5002183;28;8797;-66
2022/05/07 01:37:13;;;;;;;;;10.75;7.00;;;;;-143.93;100.00;62969.28;5003129;28;9014;-67
2022/05/07 01:39:38;;;;;;;;;12.50;9.75;;;;;-143.93;100.00;62969.28;5010771;28;9101;-67
2022/05/07 01:42:04;;;;;;;;;7.00;7.00;;;;;-143.93;100.00;62969.28;5006433;28;8822;-66
2022/05/07 01:44:29;;;;;;;;;12.00;8.50;;;;;-143.93;100.00;62969.28;4992654;28;8804;-66
2022/05/07 01:49:58;;;;;;;;;10.00;8.25;;;;;-143.93;100.00;62969.28;5096687;27;8825;-67
2022/05/07 01:52:23;;;;;;;;;12.00;10.00;;;;;-143.93;100.00;62969.28;5093521;27;8819;-67
2022/05/07 01:54:49;;;;;;;;;10.75;8.50;;;;;-143.93;100.00;62969.28;5092349;28;9589;-67
2022/05/07 01:57:14;;;;;;;;;9.00;8.25;;;;;-143.93;100.00;62969.28;5093377;28;9028;-67
2022/05/07 01:59:39;;;;;;;;;14.25;10.25;;;;;-143.93;100.00;62969.28;5112458;27;8902;-67
2022/05/07 02:02:05;;;;;;;;;9.75;8.00;;;;;-143.93;100.00;62969.28;5107960;28;8823;-67
2022/05/07 02:04:31;;;;;;;;;11.00;10.00;;;;;-143.93;100.00;62969.28;5096825;28;8783;-67
2022/05/07 02:06:57;;;;;;;;;9.25;6.50;;;;;-143.93;100.00;62969.28;5103645;27;8817;-67
2022/05/07 02:09:22;;;;;;;;;10.00;8.50;;;;;-143.93;100.00;62969.28;5113191;27;8807;-67
2022/05/07 02:11:47;;;;;;;;;4.75;4.75;;;;;-143.93;100.00;62969.28;5090578;28;8998;-67
2022/05/07 02:14:13;;;;;;;;;9.25;9.25;;;;;-143.93;100.00;62969.28;5091879;28;8798;-67
2022/05/07 02:16:38;;;;;;;;;11.75;9.75;;;;;-143.93;100.00;62969.28;5103067;27;9554;-67
2022/05/07 02:19:04;;;;;;;;;11.25;9.25;;;;;-143.93;100.00;62969.28;5110271;27;8812;-67
2022/05/07 02:21:29;;;;;;;;;11.50;11.25;;;;;-143.93;100.00;62969.28;5015864;28;8928;-67
2022/05/07 02:23:55;;;;;;;;;11.50;8.00;;;;;-143.93;100.00;62969.28;4991072;28;8843;-67
2022/05/07 02:26:20;;;;;;;;;13.25;9.75;;;;;-143.93;100.00;62969.28;4993505;28;9547;-67
2022/05/07 02:28:47;;;;;;;;;9.25;7.75;;;;;-143.93;100.00;62969.28;5009692;28;8856;-67
2022/05/07 02:31:12;;;;;;;;;13.25;10.25;;;;;-143.93;100.00;62969.28;5005706;28;8993;-67
2022/05/07 02:33:38;;;;;;;;;12.75;10.50;;;;;-143.93;100.00;62969.28;5004630;28;8809;-67
2022/05/07 02:36:03;;;;;;;;;11.75;8.75;;;;;-143.93;100.00;62969.28;4999095;28;8833;-67
2022/05/07 02:38:29;;;;;;;;;11.25;7.75;;;;;-143.93;100.00;62969.28;5020205;28;9594;-67
2022/05/07 02:43:38;;;;;;;;;7.50;7.50;;;;;-143.93;100.00;62969.28;5009890;28;8799;-67
2022/05/07 02:46:03;;;;;;;;;7.50;6.50;;;;;-143.93;100.00;62969.28;5005559;28;8958;-67
2022/05/07 02:48:29;;;;;;;;;13.00;13.00;;;;;-143.93;100.00;62969.28;4992243;28;8812;-67
2022/05/07 02:50:54;;;;;;;;;9.00;8.00;;;;;-143.93;100.00;62969.28;4989730;28;8836;-67
2022/05/07 02:53:20;;;;;;;;;10.50;9.00;;;;;-143.93;100.00;62969.28;5012204;28;8829;-66
2022/05/07 02:55:45;;;;;;;;;8.75;8.00;;;;;-143.93;100.00;62969.28;5003548;28;8805;-67
2022/05/07 02:58:11;;;;;;;;;8.00;8.00;;;;;-143.93;100.00;62969.28;5003148;28;8827;-67
2022/05/07 03:00:36;;;;;;;;;8.50;4.75;;;;;-143.93;100.00;62969.28;5005343;28;8809;-67
2022/05/07 03:03:01;;;;;;;;;11.50;9.50;;;;;-143.93;100.00;62969.28;5009375;28;8922;-67
2022/05/07 03:05:28;;;;;;;;;10.25;9.50;;;;;-143.93;100.00;62969.28;4993249;28;8843;-67
2022/05/07 03:07:56;;;;;;;;;15.00;11.00;;;;;-143.93;100.00;62969.28;5013861;28;8829;-67
2022/05/07 03:10:21;;;;;;;;;11.50;9.75;;;;;-143.93;100.00;62969.28;5002086;28;8843;-67
2022/05/07 03:12:47;;;;;;;;;10.25;10.00;;;;;-143.93;100.00;62969.28;5002177;28;8934;-67
2022/05/07 03:15:12;;;;;;;;;11.25;10.25;;;;;-143.93;100.00;62969.28;5014492;27;9640;-67
2022/05/07 03:17:37;;;;;;;;;10.50;10.50;;;;;-143.93;100.00;62969.28;4991659;28;8819;-66
2022/05/07 03:20:08;;;;;;;;;10.25;8.75;;;;;-143.93;100.00;62969.28;4996362;28;8930;-67
2022/05/07 03:22:33;;;;;;;;;12.50;10.50;;;;;-143.93;100.00;62969.28;4994150;28;8823;-67
2022/05/07 03:24:58;;;;;;;;;8.75;8.25;;;;;-143.93;100.00;62969.28;5009439;28;12996;-67
2022/05/07 03:27:24;;;;;;;;;10.00;9.00;;;;;-143.93;100.00;62969.28;5003656;28;8836;-67
2022/05/07 03:29:49;;;;;;;;;11.50;8.50;;;;;-143.93;100.00;62969.28;5009517;28;9624;-67
2022/05/07 03:32:14;;;;;;;;;8.25;8.25;;;;;-143.93;100.00;62969.28;5007134;28;13618;-67
2022/05/07 03:34:39;;;;;;;;;11.00;8.00;;;;;-143.93;100.00;62969.28;4999048;28;19803;-67
2022/05/07 03:37:05;;;;;;;;;11.25;10.50;;;;;-143.93;100.00;62969.28;5018895;28;11055;-67
2022/05/07 03:39:31;;;;;;;;;12.50;9.75;;;;;-143.93;100.00;62969.28;5009434;28;16294;-67
2022/05/07 03:41:56;;;;;;;;;15.25;9.00;;;;;-143.93;100.00;62969.28;4989632;28;8819;-67
2022/05/07 03:44:21;;;;;;;;;10.50;9.50;;;;;-143.93;100.00;62969.28;4992866;28;8877;-67
2022/05/07 03:46:47;;;;;;;;;12.00;11.75;;;;;-143.93;100.00;62969.28;4993485;28;9061;-68
2022/05/07 03:49:14;;;;;;;;;13.75;11.50;;;;;-143.93;100.00;62969.28;4994201;28;9628;-67
2022/05/07 03:54:23;;;;;;;;;10.00;10.00;;;;;-143.93;100.00;62969.28;4990642;28;8840;-67
2022/05/07 03:56:49;;;;;;;;;18.25;10.75;;;;;-143.93;100.00;62969.28;5004702;28;8864;-67
2022/05/07 03:59:14;;;;;;;;;7.25;7.25;;;;;-143.93;100.00;62969.28;5010744;28;9537;-67
2022/05/07 04:01:39;;;;;;;;;11.00;9.75;;;;;-143.93;100.00;62969.28;5004827;28;8805;-66
2022/05/07 04:04:04;;;;;;;;;14.50;11.25;;;;;-143.93;100.00;62969.28;5000563;28;8836;-67
2022/05/07 04:06:30;;;;;;;;;14.00;10.25;;;;;-143.93;100.00;62969.28;5014476;28;16509;-67
2022/05/07 04:08:55;;;;;;;;;14.75;12.25;;;;;-143.93;100.00;62969.28;5014530;28;23785;-67
2022/05/07 04:11:20;;;;;;;;;10.25;9.75;;;;;-143.93;100.00;62969.28;5003359;28;19010;-66
2022/05/07 04:13:46;;;;;;;;;12.75;10.25;;;;;-143.93;100.00;62969.28;5001396;28;8921;-66
2022/05/07 04:16:11;;;;;;;;;14.25;12.50;;;;;-143.93;100.00;62969.28;5002278;28;9616;-67
2022/05/07 04:18:36;;;;;;;;;17.25;13.50;;;;;-143.93;100.00;62969.28;5011118;28;8808;-67
2022/05/07 04:21:02;;;;;;;;;18.50;14.75;;;;;-143.93;100.00;62969.28;5004871;28;9524;-67
2022/05/07 04:23:27;;;;;;;;;16.50;13.00;;;;;-143.93;100.00;62969.28;5006112;28;8821;-67
2022/05/07 04:25:52;;;;;;;;;13.00;10.25;;;;;-143.93;100.00;62969.28;5007096;28;25609;-67
2022/05/07 04:28:17;;;;;;;;;16.00;11.25;;;;;-143.93;100.00;62969.28;5009944;28;20908;-67
2022/05/07 04:30:43;;;;;;;;;19.75;13.75;;;;;-143.93;100.00;62969.28;5014190;28;9545;-67
2022/05/07 04:33:08;;;;;;;;;13.75;9.75;;;;;-143.93;100.00;62969.28;5010115;28;13529;-67
2022/05/07 04:35:34;;;;;;;;;18.25;12.75;;;;;-143.93;100.00;62969.28;5008151;28;8818;-67
2022/05/07 04:37:59;;;;;;;;;16.00;12.25;;;;;-143.93;100.00;62969.28;5026712;28;8977;-67
2022/05/07 04:40:25;;;;;;;;;14.00;11.50;;;;;-143.93;100.00;62969.28;5011711;28;8829;-67
2022/05/07 04:42:51;;;;;;;;;12.25;11.50;;;;;-143.93;100.00;62969.28;5010108;28;9603;-67
2022/05/07 04:45:16;;;;;;;;;17.50;10.50;;;;;-143.93;100.00;62969.28;5009179;28;8853;-67
2022/05/07 04:47:41;;;;;;;;;17.50;14.25;;;;;-143.93;100.00;62969.28;4994588;28;8834;-67
2022/05/07 04:50:07;;;;;;;;;12.50;11.75;;;;;-143.93;100.00;62969.28;4996704;28;8819;-67
2022/05/07 04:52:33;;;;;;;;;18.00;14.50;;;;;-143.93;100.00;62969.28;4999525;28;8830;-67
2022/05/07 04:55:01;;;;;;;;;11.75;10.00;;;;;-143.93;100.00;62969.28;4993804;28;8916;-67
2022/05/07 04:57:26;;;;;;;;;17.50;11.75;;;;;-143.93;100.00;62969.28;4998626;28;8864;-67
2022/05/07 04:59:52;;;;;;;;;17.75;12.75;;;;;-143.93;100.00;62969.28;5012977;28;9587;-67
2022/05/07 05:02:18;;;;;;;;;16.00;13.50;;;;;-143.93;100.00;62969.28;5009389;28;8833;-67
2022/05/07 05:04:43;;;;;;;;;15.75;11.50;;;;;-143.93;100.00;62969.28;5007224;28;8939;-67
2022/05/07 05:07:08;;;;;;;;;14.00;11.25;;;;;-143.93;100.00;62969.28;5007340;28;8998;-67
2022/05/07 05:09:34;;;;;;;;;16.25;13.25;;;;;-143.93;100.00;62969.28;5017501;28;8812;-67
2022/05/07 05:11:59;;;;;;;;;15.25;14.25;;;;;-143.93;100.00;62969.28;5010536;28;9183;-67
2022/05/07 05:17:22;;;;;;;;;16.50;15.50;;;;;-143.93;100.00;62969.28;4953242;28;8844;-67
2022/05/07 05:19:47;;;;;;;;;16.25;12.75;;;;;-143.93;100.00;62969.28;4953632;28;8822;-67
2022/05/07 05:22:13;;;;;;;;;18.50;15.00;;;;;-143.93;100.00;62969.28;4932346;28;8832;-67
2022/05/07 05:24:38;;;;;;;;;21.50;17.00;;;;;-143.93;100.00;62969.28;4946051;28;8812;-67
2022/05/07 05:27:04;;;;;;;;;19.75;12.00;;;;;-143.93;100.00;62969.28;4951565;28;8866;-67
2022/05/07 05:29:29;;;;;;;;;21.00;14.75;;;;;-143.93;100.00;62969.28;4954354;28;8808;-67
2022/05/07 05:31:55;;;;;;;;;15.25;9.25;;;;;-143.93;100.00;62969.28;4977270;28;8843;-67
2022/05/07 05:34:20;;;;;;;;;20.25;15.00;;;;;-143.93;100.00;62969.28;4975272;28;8850;-66
2022/05/07 05:36:45;;;;;;;;;20.25;16.75;;;;;-143.93;100.00;62969.28;4948559;28;8866;-66
2022/05/07 05:39:11;;;;;;;;;16.75;15.50;;;;;-143.93;100.00;62969.28;4957680;28;8869;-66
2022/05/07 05:41:39;;;;;;;;;18.75;16.00;;;;;-143.93;100.00;62969.28;4955193;28;9074;-66
2022/05/07 05:44:04;;;;;;;;;19.00;13.75;;;;;-143.93;100.00;62969.28;4948805;28;8968;-66
2022/05/07 05:46:30;;;;;;;;;20.75;18.75;;;;;-143.93;100.00;62969.28;4943622;28;8834;-66
2022/05/07 05:49:05;;;;;;;;;21.25;17.00;;;;;-143.93;100.00;62969.28;4949685;28;8845;-66
2022/05/07 05:51:31;;;;;;;;;16.50;16.25;;;;;-143.93;100.00;62969.28;4948200;28;8936;-67
2022/05/07 05:53:57;;;;;;;;;20.00;14.75;;;;;-143.93;100.00;62969.28;5001236;28;8828;-67
2022/05/07 05:56:22;;;;;;;;;21.25;17.25;;;;;-143.93;100.00;62969.28;5009829;28;8847;-67
2022/05/07 05:58:47;;;;;;;;;24.50;16.50;;;;;-143.93;100.00;62969.28;5006754;28;8824;-67
2022/05/07 06:01:13;;;;;;;;;23.50;14.75;;;;;-143.93;100.00;62969.28;5000258;28;8815;-67
2022/05/07 06:03:39;;;;;;;;;15.50;14.00;;;;;-143.93;100.00;62969.28;5043778;27;8965;-67
2022/05/07 06:06:04;;;;;;;;;21.50;14.50;;;;;-143.93;100.00;62969.28;5006031;28;8934;-67
2022/05/07 06:08:30;;;;;;;;;19.75;14.75;;;;;-143.93;100.00;62969.28;5009339;28;8808;-67
2022/05/07 06:10:57;;;;;;;;;16.50;14.25;;;;;-143.93;100.00;62969.28;4995311;28;8788;-67
2022/05/07 06:13:23;;;;;;;;;21.25;14.75;;;;;-143.93;100.00;62969.28;4994639;28;9665;-67
2022/05/07 06:15:51;;;;;;;;;22.00;18.00;;;;;-143.93;100.00;62969.28;4994735;28;8901;-67
2022/05/07 06:18:22;;;;;;;;;20.50;16.25;;;;;-143.93;100.00;62969.28;4996683;28;8801;-67
2022/05/07 06:20:49;;;;;;;;;24.75;18.00;;;;;-143.93;100.00;62969.28;5007467;28;8801;-66
2022/05/07 06:23:17;;;;;;;;;19.25;18.25;;;;;-143.93;100.00;62969.28;5004944;28;8778;-67
2022/05/07 06:28:27;;;;;;;;;20.25;16.25;;;;;-143.93;100.00;62969.28;5003780;28;8790;-67
2022/05/07 06:30:53;;;;;;;;;21.25;16.50;;;;;-143.93;100.00;62969.28;5015204;28;8871;-67
2022/05/07 06:33:20;;;;;;;;;20.75;15.25;;;;;-143.93;100.00;62969.28;4992448;28;8808;-67
2022/05/07 06:35:46;;;;;;;;;21.75;18.75;;;;;-143.93;100.00;62969.28;4991601;28;8827;-67
2022/05/07 06:38:12;;;;;;;;;17.00;15.00;;;;;-143.93;100.00;62969.28;5012908;28;9641;-67
2022/05/07 06:40:39;;;;;;;;;21.00;17.75;;;;;-143.93;100.00;62969.28;5005028;28;8797;-67
2022/05/07 06:43:05;;;;;;;;;17.50;16.25;;;;;-143.93;100.00;62969.28;5000771;28;8800;-67
2022/05/07 06:45:31;;;;;;;;;22.75;14.25;;;;;-143.93;100.00;62969.28;5010915;28;8794;-67
2022/05/07 06:47:56;;;;;;;;;16.25;15.75;;;;;-143.93;100.00;62969.28;5017758;27;8896;-67
2022/05/07 06:50:22;;;;;;;;;18.00;17.50;;;;;-143.93;100.00;62969.28;4994530;28;8800;-67
2022/05/07 06:52:47;;;;;;;;;22.25;19.00;;;;;-143.93;100.00;62969.28;5001597;28;8821;-67
2022/05/07 06:55:16;;;;;;;;;23.75;18.50;;;;;-143.93;100.00;62969.28;4999604;28;8858;-68
2022/05/07 06:57:43;;;;;;;;;18.00;15.50;;;;;-143.93;100.00;62969.28;4993061;28;8914;-68
2022/05/07 07:00:10;;;;;;;;;20.00;16.00;;;;;-143.93;100.00;62969.28;4991557;27;8792;-67
2022/05/07 07:02:36;;;;;;;;;20.00;19.50;;;;;-143.93;100.00;62969.28;4998540;28;8784;-68
2022/05/07 07:05:03;;;;;;;;;8.25;5.00;;;;;-143.93;100.00;62969.28;5006836;28;8890;-67
2022/05/07 07:07:35;;;;;;;;;26.50;21.75;;;;;-143.93;100.00;62969.28;5005103;28;8848;-66
2022/05/07 07:10:02;;;;;;;;;22.50;19.75;;;;;-143.93;100.00;62969.28;5002367;28;8815;-67
2022/05/07 07:12:28;;;;;;;;;23.75;19.75;;;;;-143.93;100.00;62969.28;5002076;28;8847;-67
2022/05/07 07:14:54;;;;;;;;;23.25;16.50;;;;;-143.93;100.00;62969.28;5005940;28;8812;-67
2022/05/07 07:17:19;;;;;;;;;26.75;18.75;;;;;-143.93;100.00;62969.28;5007816;28;8925;-67
2022/05/07 07:19:45;;;;;;;;;20.50;20.25;;;;;-143.93;100.00;62969.28;4997566;28;8831;-66
2022/05/07 07:22:11;;;;;;;;;26.25;21.50;;;;;-143.93;100.00;62969.28;4991610;28;8819;-66
2022/05/07 07:24:36;;;;;;;;;17.75;16.25;;;;;-143.93;100.00;62969.28;4993261;28;8806;-67
2022/05/07 07:27:03;;;;;;;;;36.25;24.00;;;;;-143.93;100.00;62969.28;4995022;28;11048;-67
2022/05/07 07:29:29;;;;;;;;;22.75;19.50;;;;;-143.93;100.00;62969.28;5001939;28;8837;-67
2022/05/07 07:31:54;;;;;;;;;21.00;18.00;;;;;-143.93;100.00;62969.28;4993364;28;8851;-67
2022/05/07 07:34:21;;;;;;;;;21.75;20.25;;;;;-143.93;100.00;62969.28;4995284;28;8817;-66
2022/05/07 07:36:49;;;;;;;;;18.75;17.25;;;;;-143.93;100.00;62969.28;4991971;28;8879;-67
2022/05/07 07:39:16;;;;;;;;;25.25;21.25;;;;;-143.93;100.00;62969.28;4988888;28;8908;-67
2022/05/07 07:41:41;;;;;;;;;22.25;22.00;;;;;-143.93;100.00;62969.28;5002502;28;8810;-67
2022/05/07 07:44:06;;;;;;;;;23.00;18.50;;;;;-143.93;100.00;62969.28;4990813;28;9614;-67
2022/05/07 07:49:16;;;;;;;;;25.50;22.25;;;;;-143.93;100.00;62969.28;4992809;28;8807;-67
2022/05/07 07:51:41;;;;;;;;;20.25;18.50;;;;;-143.93;100.00;62969.28;4992885;28;8879;-67
2022/05/07 07:54:06;;;;;;;;;25.00;21.75;;;;;-143.93;100.00;62969.28;5003620;28;9814;-67
2022/05/07 07:56:32;;;;;;;;;10.25;9.00;;;;;-143.93;100.00;62969.28;5001327;28;8811;-68
2022/05/07 07:58:57;;;;;;;;;18.00;16.25;;;;;-143.93;100.00;62969.28;4995948;28;9580;-67
2022/05/07 08:01:22;;;;;;;;;20.75;15.75;;;;;-143.93;100.00;62969.28;5000734;28;8823;-67
2022/05/07 08:03:48;;;;;;;;;22.50;16.75;;;;;-143.93;100.00;62969.28;5004894;28;8915;-68
2022/05/07 08:06:13;;;;;;;;;16.00;15.00;;;;;-143.93;100.00;62969.28;5011688;28;8860;-67
2022/05/07 08:11:41;;;;;;;;;17.25;14.00;;;;;-143.93;100.00;62969.28;5005151;28;8794;-68
2022/05/07 08:14:08;;;;;;;;;21.25;18.50;;;;;-143.93;100.00;62969.28;5012315;28;8834;-67
2022/05/07 08:16:34;;;;;;;;;14.25;14.00;;;;;-143.93;100.00;62969.28;5001184;28;8822;-68
2022/05/07 08:18:59;;;;;;;;;16.75;14.75;;;;;-143.93;100.00;62969.28;4993776;28;8817;-68
2022/05/07 08:21:25;;;;;;;;;15.00;14.00;;;;;-143.93;100.00;62969.28;5004326;28;8809;-68
2022/05/07 08:23:50;;;;;;;;;17.00;14.25;;;;;-143.93;100.00;62969.28;5008964;28;8848;-68
2022/05/07 08:26:16;;;;;;;;;20.00;14.00;;;;;-143.93;100.00;62969.28;5003020;28;8841;-68
2022/05/07 08:28:42;;;;;;;;;17.00;14.75;;;;;-143.93;100.00;62969.28;5002021;28;8838;-67
2022/05/07 08:31:08;;;;;;;;;19.75;17.50;;;;;-143.93;100.00;62969.28;5001164;28;8827;-67
2022/05/07 08:33:34;;;;;;;;;18.75;16.50;;;;;-143.93;100.00;62969.28;5015083;28;8805;-68
2022/05/07 08:36:00;;;;;;;;;16.00;13.50;;;;;-143.93;100.00;62969.28;4989955;28;8901;-68
2022/05/07 08:38:26;;;;;;;;;15.75;14.75;;;;;-143.93;100.00;62969.28;5003129;28;8801;-67
2022/05/07 08:40:51;;;;;;;;;20.25;15.75;;;;;-143.93;100.00;62969.28;5000944;28;8829;-68
2022/05/07 08:43:18;;;;;;;;;17.75;16.00;;;;;-143.93;100.00;62969.28;5002597;28;8839;-68
2022/05/07 08:45:44;;;;;;;;;27.25;17.25;;;;;-143.93;100.00;62969.28;4993029;28;8978;-67
2022/05/07 08:48:10;;;;;;;;;16.50;15.75;;;;;-143.93;100.00;62969.28;4997543;28;8926;-67
2022/05/07 08:50:38;;;;;;;;;9.50;6.00;;;;;-143.93;100.00;62969.28;4995126;28;8831;-67
2022/05/07 08:53:03;;;;;;;;;57.75;46.00;;;;;-143.93;100.00;62969.28;4996408;28;8827;-67
2022/05/07 08:55:30;;;;;;;;;17.50;15.00;;;;;-143.93;100.00;62969.28;5003735;28;8840;-67
2022/05/07 08:57:55;;;;;;;;;17.50;15.75;;;;;-143.93;100.00;62969.28;5006489;28;8829;-67
2022/05/07 09:00:23;;;;;;;;;17.25;12.25;;;;;-143.93;100.00;62969.28;5003668;27;8851;-69
2022/05/07 09:02:52;;;;;;;;;15.00;14.25;;;;;-143.93;100.00;62969.28;4989531;28;8800;-68
2022/05/07 09:05:20;;;;;;;;;17.00;13.50;;;;;-143.93;100.00;62969.28;5003547;28;8810;-68
2022/05/07 09:07:57;;;;;;;;;15.50;14.25;;;;;-143.93;100.00;62969.28;4993347;28;8816;-67
2022/05/07 09:10:27;;;;;;;;;18.00;13.00;;;;;-143.93;100.00;62969.28;4998159;28;8817;-70
2022/05/07 09:12:53;;;;;;;;;15.75;14.50;;;;;-143.93;100.00;62969.28;5004332;28;9597;-69
2022/05/07 09:15:19;;;;;;;;;15.00;12.00;;;;;-143.93;100.00;62969.28;5007072;28;8811;-68
2022/05/07 09:17:48;;;;;;;;;16.00;13.50;;;;;-143.93;100.00;62969.28;5019408;28;8811;-69
2022/05/07 09:20:14;;;;;;;;;14.25;12.00;;;;;-143.93;100.00;62969.28;5036346;28;8802;-66
2022/05/07 09:22:55;;;;;;;;;19.75;15.75;;;;;-143.93;100.00;62969.28;5006333;28;8994;-68
2022/05/07 09:25:27;;;;;;;;;17.25;15.25;;;;;-143.93;100.00;62969.28;5000243;28;8910;-69
2022/05/07 09:27:56;;;;;;;;;16.00;12.50;;;;;-143.93;100.00;62969.28;4995062;28;8790;-70
2022/05/07 09:30:26;;;;;;;;;13.75;13.00;;;;;-143.93;100.00;62969.28;4997874;28;8833;-70
2022/05/07 09:32:54;;;;;;;;;16.00;15.75;;;;;-143.93;100.00;62969.28;5008399;28;8789;-71
2022/05/07 09:38:07;;;;;;;;;19.75;13.25;;;;;-143.93;100.00;62969.28;5005328;28;8801;-73
2022/05/07 09:40:41;;;;;;;;;15.00;13.00;;;;;-143.93;100.00;62969.28;5006242;28;15537;-70
2022/05/07 09:43:12;;;;;;;;;17.75;14.25;;;;;-143.93;100.00;62969.28;5037209;28;8816;-74
2022/05/07 09:45:39;;;;;;;;;17.50;13.00;;;;;-143.93;100.00;62969.28;5012728;28;10562;-70
2022/05/07 09:48:06;;;;;;;;;17.75;13.50;;;;;-143.93;100.00;62969.28;5004206;28;8931;-71
2022/05/07 09:58:33;;;;;;;;;14.75;12.50;;;;;-143.93;100.00;62969.28;5008175;28;8807;-70
2022/05/07 10:01:12;;;;;;;;;16.75;16.75;;;;;-143.93;100.00;62969.28;5011918;28;9630;-70
2022/05/07 10:03:45;;;;;;;;;16.50;16.00;;;;;-143.93;100.00;62969.28;4996079;28;8817;-70
2022/05/07 10:06:41;;;;;;;;;18.50;13.50;;;;;-143.93;100.00;62969.28;5006283;28;8813;-70
2022/05/07 10:09:06;;;;;;;;;16.75;16.25;;;;;-143.93;100.00;62969.28;4992746;28;8820;-69
2022/05/07 10:11:32;;;;;;;;;16.67;15.00;;;;;-143.93;100.00;62969.28;5010412;28;8809;-69
2022/05/07 10:13:58;;;;;;;;;15.75;14.25;;;;;-143.93;100.00;62969.28;5006965;28;10915;-70
2022/05/07 10:16:28;;;;;;;;;20.00;18.75;;;;;-143.93;100.00;62969.28;5003207;28;8832;-69
2022/05/07 10:18:55;;;;;;;;;15.50;14.75;;;;;-143.93;100.00;62969.28;5002944;28;8800;-68
2022/05/07 10:21:21;;;;;;;;;13.25;12.25;;;;;-143.93;100.00;62969.28;4995316;28;8805;-68
2022/05/07 10:23:50;;;;;;;;;19.25;17.00;;;;;-143.93;100.00;62969.28;5013278;28;9794;-69
2022/05/07 10:26:16;;;;;;;;;19.75;13.25;;;;;-143.93;100.00;62969.28;5008310;28;9899;-68
2022/05/07 10:28:42;;;;;;;;;18.00;13.50;;;;;-143.93;100.00;62969.28;5010106;27;9762;-67
2022/05/07 10:31:24;;;;;;;;;19.25;17.00;;;;;-143.93;100.00;62969.28;5001923;28;8829;-69
2022/05/07 10:33:51;;;;;;;;;19.25;17.25;;;;;-143.93;100.00;62969.28;5005453;28;8925;-69
2022/05/07 10:36:18;;;;;;;;;17.75;16.50;;;;;-143.93;100.00;62969.28;5045327;27;8917;-68
2022/05/07 10:38:46;;;;;;;;;16.75;16.25;;;;;-143.93;100.00;62969.28;5002082;27;8816;-69
2022/05/07 10:41:11;;;;;;;;;17.00;14.25;;;;;-143.93;100.00;62969.28;5004507;28;8805;-68
2022/05/07 10:43:44;;;;;;;;;16.33;14.00;;;;;-143.93;100.00;62969.28;5006114;28;8913;-68
2022/05/07 10:46:13;;;;;;;;;21.00;17.75;;;;;-143.93;100.00;62969.28;5004661;28;10206;-68
2022/05/07 10:48:45;;;;;;;;;14.25;12.50;;;;;-143.93;100.00;62969.28;5001301;28;8813;-68
2022/05/07 10:51:32;;;;;;;;;17.00;14.50;;;;;-143.93;100.00;62969.28;4987557;28;8826;-68
2022/05/07 10:54:05;;;;;;;;;15.25;14.00;;;;;-143.93;100.00;62969.28;5011573;28;8908;-68
2022/05/07 10:56:32;;;;;;;;;13.75;12.50;;;;;-143.93;100.00;62969.28;5001620;28;8828;-68
2022/05/07 10:58:58;;;;;;;;;16.75;14.00;;;;;-143.93;100.00;62969.28;5008167;28;8841;-68
2022/05/07 11:01:26;;;;;;;;;19.25;15.75;;;;;-143.93;100.00;62969.28;5003286;28;9584;-68
2022/05/07 11:04:05;;;;;;;;;16.25;15.00;;;;;-143.93;100.00;62969.28;5000511;28;8791;-68
2022/05/07 11:06:40;;;;;;;;;18.25;14.50;;;;;-143.93;100.00;62969.28;5007454;28;8860;-69
2022/05/07 11:09:27;;;;;;;;;19.00;17.50;;;;;-143.93;100.00;62969.28;5007207;27;8796;-70
2022/05/07 11:11:57;;;;;;;;;18.25;14.25;;;;;-143.93;100.00;62969.28;5028629;27;9666;-68
2022/05/07 11:14:35;;;;;;;;;18.50;15.00;;;;;-143.93;100.00;62969.28;5008515;28;8797;-69
2022/05/07 11:17:04;;;;;;;;;16.25;15.00;;;;;-143.93;100.00;62969.28;4995254;28;9714;-68
2022/05/07 11:19:32;;;;;;;;;15.50;14.75;;;;;-143.93;100.00;62969.28;4991069;28;8792;-68
2022/05/07 11:22:02;;;;;;;;;17.00;15.00;;;;;-143.93;100.00;62969.28;4986907;28;8800;-69
2022/05/07 11:24:28;;;;;;;;;17.25;15.50;;;;;-143.93;100.00;62969.28;5011794;28;8815;-69
2022/05/07 11:26:58;;;;;;;;;19.25;15.75;;;;;-143.93;100.00;62969.28;5002173;28;8828;-69
2022/05/07 11:29:25;;;;;;;;;14.75;13.50;;;;;-143.93;100.00;62969.28;5000163;28;8845;-70
2022/05/07 11:31:59;;;;;;;;;15.25;12.50;;;;;-143.93;100.00;62969.28;4992761;27;8832;-69
2022/05/07 11:34:29;;;;;;;;;17.00;14.00;;;;;-143.93;100.00;62969.28;4999189;28;8821;-69
2022/05/07 11:36:54;;;;;;;;;20.00;14.50;;;;;-143.93;100.00;62969.28;4999076;28;8796;-69
2022/05/07 11:39:21;;;;;;;;;18.75;14.00;;;;;-143.93;100.00;62969.28;4988493;28;9974;-69